createdAt,value
2019-04-26T00:01:20.441Z,2.62
2019-04-26T00:03:50.015Z,2.61
2019-04-26T00:06:19.914Z,2.55
2019-04-26T00:08:53.930Z,2.48
2019-04-26T00:11:51.785Z,2.38
2019-04-26T00:14:40.108Z,2.31
2019-04-26T00:17:13.708Z,2.31
2019-04-26T00:19:43.475Z,2.42
2019-04-26T00:22:13.753Z,2.47
2019-04-26T00:24:44.609Z,2.55
2019-04-26T00:27:14.807Z,2.57
2019-04-26T00:29:44.387Z,2.58
2019-04-26T00:32:13.717Z,2.56
2019-04-26T00:34:43.140Z,2.55
2019-04-26T00:37:13.159Z,2.56
2019-04-26T00:39:43.421Z,2.58
2019-04-26T00:42:14.614Z,2.57
2019-04-26T00:44:44.881Z,2.51
2019-04-26T00:47:15.419Z,2.49
2019-04-26T00:49:45.093Z,2.51
2019-04-26T00:52:15.792Z,2.52
2019-04-26T00:54:46.272Z,2.54
2019-04-26T00:57:18.259Z,2.58
2019-04-26T00:59:49.217Z,2.58
2019-04-26T01:02:25.176Z,2.60
2019-04-26T01:04:54.551Z,2.60
2019-04-26T01:07:23.896Z,2.64
2019-04-26T01:09:53.378Z,2.65
2019-04-26T01:12:23.863Z,2.68
2019-04-26T01:14:53.270Z,2.68
2019-04-26T01:17:22.668Z,2.64
2019-04-26T01:19:54.888Z,2.58
2019-04-26T01:22:27.808Z,2.54
2019-04-26T01:24:59.296Z,2.55
2019-04-26T01:27:30.423Z,2.56
2019-04-26T01:30:03.572Z,2.54
2019-04-26T01:32:34.953Z,2.54
2019-04-26T01:35:04.510Z,2.43
2019-04-26T01:37:34.664Z,2.37
2019-04-26T01:40:08.176Z,2.35
2019-04-26T01:42:58.833Z,2.29
2019-04-26T01:45:40.349Z,2.19
2019-04-26T01:48:32.885Z,2.12
2019-04-26T01:51:02.433Z,2.05
2019-04-26T01:53:32.983Z,2.02
2019-04-26T01:56:02.669Z,2.01
2019-04-26T01:58:32.247Z,2.02
2019-04-26T02:01:35.604Z,1.99
2019-04-26T02:04:05.170Z,1.96
2019-04-26T02:06:35.306Z,1.94
2019-04-26T02:09:07.943Z,1.94
2019-04-26T02:11:37.938Z,1.97
2019-04-26T02:14:07.849Z,1.95
2019-04-26T02:16:37.398Z,1.96
2019-04-26T02:19:07.301Z,1.98
2019-04-26T02:21:42.731Z,2.02
2019-04-26T02:24:17.313Z,2.03
2019-04-26T02:26:48.091Z,1.99
2019-04-26T02:29:20.730Z,2.00
2019-04-26T02:31:55.287Z,2.07
2019-04-26T02:34:27.954Z,2.15
2019-04-26T02:36:59.867Z,2.23
2019-04-26T02:39:35.336Z,2.28
2019-04-26T02:42:07.801Z,2.35
2019-04-26T02:44:46.344Z,2.37
2019-04-26T02:47:44.118Z,2.37
2019-04-26T02:50:19.789Z,2.36
2019-04-26T02:53:17.868Z,2.36
2019-04-26T02:56:15.499Z,2.32
2019-04-26T02:59:07.998Z,2.24
2019-04-26T03:01:38.753Z,2.17
2019-04-26T03:04:08.679Z,2.12
2019-04-26T03:06:41.229Z,2.05
2019-04-26T03:09:13.329Z,2.04
2019-04-26T03:11:45.872Z,2.03
2019-04-26T03:14:37.067Z,2.01
2019-04-26T03:17:26.576Z,2.01
2019-04-26T03:20:02.437Z,1.99
2019-04-26T03:23:21.512Z,1.99
2019-04-26T03:26:43.367Z,2.00
2019-04-26T03:29:32.897Z,2.01
2019-04-26T03:32:49.391Z,2.06
2019-04-26T03:35:28.963Z,2.10
2019-04-26T03:38:17.287Z,2.12
2019-04-26T03:41:12.894Z,2.10
2019-04-26T03:43:55.291Z,2.09
2019-04-26T03:46:49.898Z,2.08
2019-04-26T03:50:02.653Z,2.10
2019-04-26T03:52:57.994Z,2.20
2019-04-26T03:56:23.612Z,2.30
2019-04-26T03:59:14.560Z,2.39
2019-04-26T04:02:06.750Z,2.47
2019-04-26T04:04:46.725Z,2.56
2019-04-26T04:07:35.594Z,2.70
2019-04-26T04:09:54.461Z,2.80
2019-04-26T04:12:49.058Z,2.91
2019-04-26T04:15:24.915Z,3.00
2019-04-26T04:18:00.746Z,3.11
2019-04-26T04:21:11.285Z,3.19
2019-04-26T04:23:57.389Z,3.29
2019-04-26T04:26:39.718Z,3.39
2019-04-26T04:29:55.674Z,3.48
2019-04-26T04:32:51.728Z,3.58
2019-04-26T04:35:24.127Z,3.74
2019-04-26T04:38:09.286Z,3.88
2019-04-26T04:41:11.564Z,4.02
2019-04-26T04:43:49.447Z,4.11
2019-04-26T04:46:37.785Z,4.26
2019-04-26T04:49:30.668Z,4.33
2019-04-26T04:52:31.012Z,4.54
2019-04-26T04:55:08.810Z,4.73
2019-04-26T04:58:10.453Z,4.88
2019-04-26T05:01:22.358Z,5.05
2019-04-26T05:04:06.154Z,5.19
2019-04-26T05:07:10.334Z,5.40
2019-04-26T05:09:45.714Z,5.54
2019-04-26T05:12:22.609Z,5.67
2019-04-26T05:15:54.947Z,5.84
2019-04-26T05:18:54.827Z,6.01
2019-04-26T05:21:39.527Z,6.55
2019-04-26T05:24:34.764Z,7.28
2019-04-26T05:27:49.640Z,7.82
2019-04-26T05:31:17.677Z,8.49
2019-04-26T05:34:10.422Z,9.58
2019-04-26T05:37:15.512Z,10.68
2019-04-26T05:39:53.446Z,11.33
2019-04-26T05:42:51.635Z,12.54
2019-04-26T05:46:11.195Z,13.53
2019-04-26T05:49:16.760Z,15.05
2019-04-26T05:52:21.886Z,16.18
2019-04-26T05:55:29.476Z,16.87
2019-04-26T05:58:26.438Z,16.37
2019-04-26T06:01:28.025Z,16.69
2019-04-26T06:04:39.441Z,17.17
2019-04-26T06:07:37.108Z,16.99
2019-04-26T06:10:22.647Z,17.07
2019-04-26T06:13:02.952Z,17.35
2019-04-26T06:15:52.773Z,18.09
2019-04-26T06:18:53.110Z,18.94
2019-04-26T06:21:49.167Z,18.90
2019-04-26T06:24:41.214Z,19.11
2019-04-26T06:27:48.805Z,19.05
2019-04-26T06:30:31.165Z,19.54
2019-04-26T06:33:29.450Z,19.69
2019-04-26T06:36:04.391Z,19.40
2019-04-26T06:39:30.099Z,19.99
2019-04-26T06:42:27.243Z,20.54
2019-04-26T06:45:32.529Z,19.69
2019-04-26T06:48:15.953Z,19.51
2019-04-26T06:50:52.421Z,19.36
2019-04-26T06:53:59.222Z,20.45
2019-04-26T06:56:57.116Z,20.89
2019-04-26T07:00:08.739Z,20.74
2019-04-26T07:03:03.785Z,21.01
2019-04-26T07:05:36.351Z,21.59
2019-04-26T07:08:40.468Z,22.70
2019-04-26T07:12:15.629Z,22.73
2019-04-26T07:15:03.716Z,22.83
2019-04-26T07:17:46.657Z,23.23
2019-04-26T07:20:36.486Z,24.31
2019-04-26T07:23:34.830Z,25.45
2019-04-26T07:26:43.410Z,25.69
2019-04-26T07:29:30.573Z,23.85
2019-04-26T07:32:17.722Z,24.45
2019-04-26T07:35:04.709Z,25.34
2019-04-26T07:38:12.043Z,26.53
2019-04-26T07:41:23.259Z,26.15
2019-04-26T07:44:22.972Z,25.99
2019-04-26T07:47:34.871Z,26.25
2019-04-26T07:50:43.948Z,24.48
2019-04-26T07:53:33.777Z,24.51
2019-04-26T07:56:16.188Z,25.77
2019-04-26T07:59:29.830Z,25.13
2019-04-26T08:02:32.976Z,25.70
2019-04-26T08:05:15.261Z,24.29
2019-04-26T08:07:48.330Z,25.98
2019-04-26T08:10:21.257Z,25.50
2019-04-26T08:12:57.371Z,26.46
2019-04-26T08:15:42.373Z,26.63
2019-04-26T08:18:21.155Z,26.95
2019-04-26T08:20:54.706Z,27.65
2019-04-26T08:23:39.487Z,28.22
2019-04-26T08:26:07.630Z,29.80
2019-04-26T08:28:39.343Z,29.25
2019-04-26T08:31:15.456Z,29.70
2019-04-26T08:33:49.890Z,27.27
2019-04-26T08:36:23.194Z,27.17
2019-04-26T08:38:54.036Z,27.85
2019-04-26T08:41:25.212Z,29.46
2019-04-26T08:44:14.340Z,29.16
2019-04-26T08:46:57.059Z,29.86
2019-04-26T08:49:44.485Z,29.12
2019-04-26T08:52:16.769Z,28.47
2019-04-26T08:54:55.906Z,28.59
2019-04-26T08:57:29.236Z,28.67
2019-04-26T09:00:01.790Z,28.94
2019-04-26T09:03:11.632Z,29.23
2019-04-26T09:06:01.757Z,29.10
2019-04-26T09:08:39.366Z,29.08
2019-04-26T09:11:08.926Z,30.68
2019-04-26T09:13:42.545Z,30.19
2019-04-26T09:16:14.763Z,29.50
2019-04-26T09:18:52.522Z,29.07
2019-04-26T09:21:17.490Z,28.76
2019-04-26T09:24:04.805Z,27.94
2019-04-26T09:26:37.464Z,27.72
2019-04-26T09:29:26.321Z,27.64
2019-04-26T09:31:58.582Z,28.03
2019-04-26T09:34:41.226Z,27.38
2019-04-26T09:37:11.214Z,27.26
2019-04-26T09:39:42.068Z,27.37
2019-04-26T09:42:23.346Z,26.65
2019-04-26T09:45:29.801Z,26.08
2019-04-26T09:48:03.050Z,27.42
2019-04-26T09:50:41.675Z,28.20
2019-04-26T09:53:11.070Z,27.44
2019-04-26T09:55:40.540Z,27.71
2019-04-26T09:58:10.036Z,27.46
2019-04-26T10:00:39.480Z,27.13
2019-04-26T10:03:09.747Z,27.06
2019-04-26T10:05:40.057Z,27.41
2019-04-26T10:08:12.990Z,27.72
2019-04-26T10:10:40.516Z,28.14
2019-04-26T10:13:27.092Z,27.07
2019-04-26T10:16:33.489Z,26.75
2019-04-26T10:19:28.069Z,25.79
2019-04-26T10:21:57.451Z,25.10
2019-04-26T10:24:26.787Z,25.68
2019-04-26T10:26:59.242Z,24.70
2019-04-26T10:29:27.138Z,24.96
2019-04-26T10:31:56.457Z,24.24
2019-04-26T10:34:25.807Z,25.54
2019-04-26T10:36:56.991Z,25.25
2019-04-26T10:39:28.530Z,24.86
2019-04-26T10:41:57.212Z,25.06
2019-04-26T10:44:26.541Z,26.66
2019-04-26T10:46:56.008Z,25.25
2019-04-26T10:49:45.590Z,25.49
2019-04-26T10:52:32.399Z,25.37
2019-04-26T10:55:24.474Z,25.18
2019-04-26T10:57:56.119Z,23.36
2019-04-26T11:00:31.653Z,24.27
2019-04-26T11:03:04.472Z,24.19
2019-04-26T11:05:32.233Z,24.44
2019-04-26T11:08:01.542Z,23.44
2019-04-26T11:10:31.893Z,23.52
2019-04-26T11:13:01.217Z,24.64
2019-04-26T11:15:32.663Z,24.33
2019-04-26T11:18:01.881Z,24.22
2019-04-26T11:20:31.326Z,22.43
2019-04-26T11:23:00.632Z,21.11
2019-04-26T11:25:29.888Z,20.25
2019-04-26T11:27:59.222Z,19.32
2019-04-26T11:30:28.632Z,18.67
2019-04-26T11:32:57.899Z,17.97
2019-04-26T11:35:29.282Z,17.67
2019-04-26T11:37:58.293Z,17.28
2019-04-26T11:40:28.190Z,17.27
2019-04-26T11:42:57.532Z,17.45
2019-04-26T11:45:26.910Z,17.18
2019-04-26T11:47:56.720Z,16.98
2019-04-26T11:50:26.032Z,17.03
2019-04-26T11:52:55.426Z,16.84
2019-04-26T11:55:25.298Z,17.05
2019-04-26T11:57:55.747Z,16.99
2019-04-26T12:00:32.876Z,16.96
2019-04-26T12:03:02.202Z,16.93
2019-04-26T12:05:56.569Z,17.03
2019-04-26T12:08:31.466Z,16.70
2019-04-26T12:11:00.792Z,16.43
2019-04-26T12:13:30.133Z,16.42
2019-04-26T12:15:59.417Z,16.46
2019-04-26T12:18:28.897Z,16.48
2019-04-26T12:21:01.083Z,16.58
2019-04-26T12:23:29.455Z,16.68
2019-04-26T12:25:58.786Z,16.77
2019-04-26T12:28:28.101Z,16.52
2019-04-26T12:30:58.452Z,16.37
2019-04-26T12:33:28.529Z,16.15
2019-04-26T12:35:57.887Z,16.16
2019-04-26T12:38:28.599Z,15.63
2019-04-26T12:40:58.235Z,15.77
2019-04-26T12:43:27.577Z,15.99
2019-04-26T12:46:14.282Z,15.90
2019-04-26T12:48:46.033Z,16.09
2019-04-26T12:51:14.713Z,16.02
2019-04-26T12:53:44.075Z,16.00
2019-04-26T12:56:13.336Z,16.00
2019-04-26T12:58:45.725Z,15.73
2019-04-26T13:01:14.255Z,15.50
2019-04-26T13:03:45.592Z,15.30
2019-04-26T13:06:15.416Z,15.32
2019-04-26T13:08:47.190Z,15.35
2019-04-26T13:11:48.675Z,15.21
2019-04-26T13:14:23.719Z,14.98
2019-04-26T13:17:02.214Z,14.79
2019-04-26T13:19:31.705Z,15.06
2019-04-26T13:22:01.025Z,15.40
2019-04-26T13:24:30.396Z,15.31
2019-04-26T13:26:59.752Z,15.18
2019-04-26T13:29:31.207Z,15.16
2019-04-26T13:32:00.120Z,15.14
2019-04-26T13:34:29.422Z,14.77
2019-04-26T13:36:59.134Z,14.70
2019-04-26T13:39:28.511Z,14.58
2019-04-26T13:42:04.634Z,14.48
2019-04-26T13:44:46.535Z,14.02
2019-04-26T13:47:30.660Z,14.22
2019-04-26T13:50:13.038Z,14.40
2019-04-26T13:52:42.352Z,14.39
2019-04-26T13:55:11.722Z,14.17
2019-04-26T13:57:44.462Z,13.98
2019-04-26T14:00:14.159Z,14.03
2019-04-26T14:02:43.489Z,14.19
2019-04-26T14:05:15.217Z,14.26
2019-04-26T14:07:43.960Z,14.25
2019-04-26T14:10:13.364Z,14.35
2019-04-26T14:12:46.134Z,14.29
2019-04-26T14:15:13.782Z,14.48
2019-04-26T14:17:43.100Z,14.35
2019-04-26T14:20:12.585Z,14.04
2019-04-26T14:22:49.303Z,13.86
2019-04-26T14:25:20.957Z,13.72
2019-04-26T14:27:52.107Z,13.51
2019-04-26T14:30:21.436Z,13.74
2019-04-26T14:32:53.158Z,13.79
2019-04-26T14:35:21.807Z,13.71
2019-04-26T14:37:51.616Z,13.56
2019-04-26T14:40:21.038Z,13.74
2019-04-26T14:42:50.322Z,13.77
2019-04-26T14:45:23.673Z,13.76
2019-04-26T14:47:50.785Z,13.90
2019-04-26T14:50:20.071Z,13.88
2019-04-26T14:52:49.391Z,14.08
2019-04-26T14:55:21.204Z,14.17
2019-04-26T14:57:51.355Z,14.04
2019-04-26T15:00:26.313Z,13.87
2019-04-26T15:03:17.231Z,13.62
2019-04-26T15:05:57.007Z,13.83
2019-04-26T15:08:26.271Z,13.89
2019-04-26T15:11:00.892Z,13.90
2019-04-26T15:13:26.872Z,13.78
2019-04-26T15:15:56.440Z,13.84
2019-04-26T15:18:29.312Z,13.66
2019-04-26T15:20:58.355Z,13.72
2019-04-26T15:23:27.791Z,13.69
2019-04-26T15:25:58.666Z,13.72
2019-04-26T15:28:28.126Z,13.70
2019-04-26T15:30:57.420Z,13.54
2019-04-26T15:33:26.732Z,13.68
2019-04-26T15:35:56.292Z,13.63
2019-04-26T15:38:25.792Z,13.78
2019-04-26T15:41:20.085Z,13.80
2019-04-26T15:44:11.377Z,13.81
2019-04-26T15:46:57.555Z,13.96
2019-04-26T15:49:38.766Z,13.99
2019-04-26T15:52:08.131Z,13.97
2019-04-26T15:54:37.448Z,14.10
2019-04-26T15:57:06.883Z,14.11
2019-04-26T15:59:36.193Z,14.00
2019-04-26T16:02:05.654Z,13.88
2019-04-26T16:04:35.029Z,13.72
2019-04-26T16:07:04.365Z,13.73
2019-04-26T16:09:33.735Z,13.78
2019-04-26T16:12:03.748Z,13.85
2019-04-26T16:14:36.595Z,13.88
2019-04-26T16:17:06.540Z,13.88
2019-04-26T16:19:35.336Z,13.74
2019-04-26T16:22:04.752Z,13.58
2019-04-26T16:24:34.499Z,13.33
2019-04-26T16:27:04.096Z,13.27
2019-04-26T16:29:58.382Z,13.26
2019-04-26T16:32:58.996Z,13.21
2019-04-26T16:35:28.327Z,13.09
2019-04-26T16:40:32.485Z,12.95
2019-04-26T16:43:02.166Z,13.02
2019-04-26T16:45:32.901Z,12.80
2019-04-26T16:48:02.205Z,12.79
2019-04-26T16:50:37.243Z,12.73
2019-04-26T16:53:02.628Z,12.63
2019-04-26T16:55:35.493Z,12.77
2019-04-26T16:58:04.479Z,12.64
2019-04-26T17:00:30.713Z,12.93
2019-04-26T17:00:50.128Z,12.64
2019-04-26T17:03:07.864Z,12.54
2019-04-26T17:05:47.552Z,12.48
2019-04-26T17:08:10.296Z,12.47
2019-04-26T17:10:38.484Z,12.38
2019-04-26T17:13:07.823Z,12.37
2019-04-26T17:15:37.289Z,12.37
2019-04-26T17:18:06.666Z,12.32
2019-04-26T17:20:36.034Z,12.29
2019-04-26T17:23:25.419Z,12.29
2019-04-26T17:26:09.640Z,12.29
2019-04-26T17:28:39.237Z,12.26
2019-04-26T17:31:08.543Z,12.08
2019-04-26T17:33:37.869Z,11.98
2019-04-26T17:36:07.143Z,11.93
2019-04-26T17:38:39.326Z,11.85
2019-04-26T17:41:10.913Z,11.88
2019-04-26T17:43:42.205Z,11.89
2019-04-26T17:46:10.654Z,11.88
2019-04-26T17:48:40.890Z,11.86
2019-04-26T17:51:18.415Z,11.82
2019-04-26T17:53:43.988Z,11.71
2019-04-26T17:56:13.457Z,11.71
2019-04-26T17:58:51.533Z,11.69
2019-04-26T18:01:39.115Z,11.57
2019-04-26T18:03:51.270Z,11.54
2019-04-26T18:06:28.870Z,11.47
2019-04-26T18:08:54.218Z,11.47
2019-04-26T18:11:19.947Z,11.41
2019-04-26T18:13:51.214Z,11.32
2019-04-26T18:16:22.023Z,11.26
2019-04-26T18:19:10.400Z,11.21
2019-04-26T18:21:56.535Z,11.16
2019-04-26T18:24:21.451Z,11.09
2019-04-26T18:26:54.036Z,11.04
2019-04-26T18:29:23.743Z,10.94
2019-04-26T18:31:53.601Z,10.89
2019-04-26T18:34:23.226Z,10.98
2019-04-26T18:36:52.595Z,10.99
2019-04-26T18:39:26.082Z,11.05
2019-04-26T18:41:53.642Z,11.00
2019-04-26T18:44:35.848Z,11.01
2019-04-26T18:47:04.576Z,11.00
2019-04-26T18:49:33.870Z,10.95
2019-04-26T18:52:03.757Z,10.86
2019-04-26T18:54:47.846Z,10.81
2019-04-26T18:57:17.241Z,10.77
2019-04-26T18:59:51.190Z,10.76
2019-04-26T19:02:19.791Z,10.69
2019-04-26T19:04:49.650Z,10.68
2019-04-26T19:07:31.271Z,10.73
2019-04-26T19:10:02.112Z,10.76
2019-04-26T19:12:23.299Z,10.75
2019-04-26T19:15:09.247Z,10.73
2019-04-26T19:17:52.558Z,10.67
2019-04-26T19:20:30.008Z,10.59
2019-04-26T19:23:00.916Z,10.53
2019-04-26T19:25:35.645Z,10.47
2019-04-26T19:28:04.276Z,10.45
2019-04-26T19:30:32.866Z,10.42
2019-04-26T19:33:02.229Z,10.40
2019-04-26T19:35:32.877Z,10.38
2019-04-26T19:38:03.233Z,10.35
2019-04-26T19:40:32.567Z,10.31
2019-04-26T19:43:07.838Z,10.28
2019-04-26T19:45:46.137Z,10.22
2019-04-26T19:48:22.739Z,10.20
2019-04-26T19:51:27.129Z,10.22
2019-04-26T19:54:09.543Z,10.19
2019-04-26T19:57:01.070Z,10.16
2019-04-26T19:59:33.220Z,10.17
2019-04-26T20:01:59.246Z,10.16
2019-04-26T20:04:30.832Z,10.09
2019-04-26T20:07:01.253Z,10.07
2019-04-26T20:09:31.904Z,10.00
2019-04-26T20:12:02.586Z,10.02
2019-04-26T20:14:44.734Z,9.93
2019-04-26T20:17:03.084Z,9.89
2019-04-26T20:19:37.029Z,9.84
2019-04-26T20:22:03.615Z,9.85
2019-04-26T20:24:32.951Z,9.84
2019-04-26T20:27:03.502Z,9.85
2019-04-26T20:29:33.320Z,9.82
2019-04-26T20:32:24.396Z,9.77
2019-04-26T20:35:12.965Z,9.74
2019-04-26T20:37:41.834Z,9.73
2019-04-26T20:40:20.239Z,9.69
2019-04-26T20:42:43.148Z,9.67
2019-04-26T20:45:16.578Z,9.70
2019-04-26T20:47:46.768Z,9.64
2019-04-26T20:50:14.864Z,9.60
2019-04-26T20:52:45.481Z,9.56
2019-04-26T20:55:15.085Z,9.53
2019-04-26T20:57:45.015Z,9.66
2019-04-26T21:00:14.652Z,9.71
2019-04-26T21:02:44.039Z,9.67
2019-04-26T21:05:14.777Z,9.72
2019-04-26T21:07:49.240Z,9.86
2019-04-26T21:10:21.715Z,9.76
2019-04-26T21:12:47.553Z,9.66
2019-04-26T21:15:20.204Z,9.57
2019-04-26T21:17:48.461Z,9.51
2019-04-26T21:20:17.826Z,9.48
2019-04-26T21:22:47.121Z,9.45
2019-04-26T21:25:23.235Z,9.40
2019-04-26T21:27:58.077Z,9.36
2019-04-26T21:30:47.695Z,9.37
2019-04-26T21:33:39.020Z,9.40
2019-04-26T21:36:36.261Z,9.43
2019-04-26T21:39:20.692Z,9.46
2019-04-26T21:41:50.351Z,9.48
2019-04-26T21:44:19.685Z,9.48
2019-04-26T21:46:49.665Z,9.47
2019-04-26T21:49:22.076Z,9.46
2019-04-26T21:51:52.630Z,9.46
2019-04-26T21:54:24.948Z,9.46
2019-04-26T21:56:53.723Z,9.45
2019-04-26T21:59:24.377Z,9.39
2019-04-26T22:01:59.046Z,9.37
2019-04-26T22:04:28.713Z,9.38
2019-04-26T22:07:00.039Z,9.45
2019-04-26T22:09:55.496Z,9.52
2019-04-26T22:12:27.278Z,9.56
2019-04-26T22:15:13.816Z,9.58
2019-04-26T22:17:45.104Z,9.60
2019-04-26T22:20:29.494Z,9.61
2019-04-26T22:23:18.412Z,9.68
2019-04-26T22:25:50.676Z,9.74
2019-04-26T22:28:20.015Z,9.80
2019-04-26T22:30:49.339Z,9.82
2019-04-26T22:33:18.773Z,9.85
2019-04-26T22:35:50.506Z,9.92
2019-04-26T22:38:23.700Z,10.01
2019-04-26T22:40:53.239Z,10.07
2019-04-26T22:43:36.781Z,10.19
2019-04-26T22:46:31.318Z,10.30
2019-04-26T22:49:03.734Z,10.30
2019-04-26T22:51:35.406Z,10.29
2019-04-26T22:54:06.241Z,10.41
2019-04-26T22:56:37.061Z,10.41
2019-04-26T22:59:07.684Z,10.39
2019-04-26T23:01:39.223Z,10.45
2019-04-26T23:04:07.317Z,10.46
2019-04-26T23:06:36.601Z,10.48
2019-04-26T23:09:11.658Z,10.49
2019-04-26T23:11:43.950Z,10.49
2019-04-26T23:14:27.238Z,10.51
2019-04-26T23:17:34.913Z,10.53
2019-04-26T23:20:20.735Z,10.56
2019-04-26T23:22:50.072Z,10.56
2019-04-26T23:25:19.333Z,10.56
2019-04-26T23:27:50.501Z,10.57
2019-04-26T23:30:19.742Z,10.58
2019-04-26T23:32:52.197Z,10.56
2019-04-26T23:35:20.231Z,10.54
2019-04-26T23:37:49.776Z,10.53
2019-04-26T23:40:20.744Z,10.53
2019-04-26T23:42:51.540Z,10.50
2019-04-26T23:45:23.026Z,10.52
2019-04-26T23:47:53.029Z,10.52
2019-04-26T23:50:25.622Z,10.50
2019-04-26T23:52:53.434Z,10.51
2019-04-26T23:55:23.598Z,10.48
2019-04-26T23:57:53.518Z,10.49
